sensor_id;sensor_type;location;lat;lon;timestamp;temperature;humidity
8862;DHT22;4799;50.996;4.754;2024-02-14T00:00:07;9.50;99.90
8862;DHT22;4799;50.996;4.754;2024-02-14T00:02:35;9.50;99.90
8862;DHT22;4799;50.996;4.754;2024-02-14T00:05:02;9.50;99.90
8862;DHT22;4799;50.996;4.754;2024-02-14T00:07:28;9.50;99.90
8862;DHT22;4799;50.996;4.754;2024-02-14T00:09:54;9.50;99.90
8862;DHT22;4799;50.996;4.754;2024-02-14T00:12:20;9.50;99.90
8862;DHT22;4799;50.996;4.754;2024-02-14T00:14:46;9.50;99.90
8862;DHT22;4799;50.996;4.754;2024-02-14T00:17:11;9.60;99.90
8862;DHT22;4799;50.996;4.754;2024-02-14T00:19:38;9.60;99.90
8862;DHT22;4799;50.996;4.754;2024-02-14T00:22:06;9.60;99.90
8862;DHT22;4799;50.996;4.754;2024-02-14T00:24:32;9.60;99.90
8862;DHT22;4799;50.996;4.754;2024-02-14T00:26:59;9.60;99.90
8862;DHT22;4799;50.996;4.754;2024-02-14T00:29:26;9.60;99.90
8862;DHT22;4799;50.996;4.754;2024-02-14T00:31:52;9.60;99.90
8862;DHT22;4799;50.996;4.754;2024-02-14T00:34:17;9.60;99.90
8862;DHT22;4799;50.996;4.754;2024-02-14T00:36:43;9.70;99.90
8862;DHT22;4799;50.996;4.754;2024-02-14T00:39:09;9.70;99.90
8862;DHT22;4799;50.996;4.754;2024-02-14T00:41:35;9.60;99.90
8862;DHT22;4799;50.996;4.754;2024-02-14T00:44:01;9.60;99.90
8862;DHT22;4799;50.996;4.754;2024-02-14T00:46:28;9.70;99.90
8862;DHT22;4799;50.996;4.754;2024-02-14T00:48:54;9.70;99.90
8862;DHT22;4799;50.996;4.754;2024-02-14T00:51:21;9.70;99.90
8862;DHT22;4799;50.996;4.754;2024-02-14T00:53:47;9.70;99.90
8862;DHT22;4799;50.996;4.754;2024-02-14T00:56:12;9.70;99.90
8862;DHT22;4799;50.996;4.754;2024-02-14T00:58:38;9.70;99.90
8862;DHT22;4799;50.996;4.754;2024-02-14T01:01:05;9.70;99.90
8862;DHT22;4799;50.996;4.754;2024-02-14T01:03:31;9.70;99.90
8862;DHT22;4799;50.996;4.754;2024-02-14T01:05:57;9.80;99.90
8862;DHT22;4799;50.996;4.754;2024-02-14T01:08:22;9.80;99.90
8862;DHT22;4799;50.996;4.754;2024-02-14T01:10:48;9.80;99.90
8862;DHT22;4799;50.996;4.754;2024-02-14T01:13:17;9.80;99.90
8862;DHT22;4799;50.996;4.754;2024-02-14T01:15:43;9.80;99.90
8862;DHT22;4799;50.996;4.754;2024-02-14T01:18:09;9.80;99.90
8862;DHT22;4799;50.996;4.754;2024-02-14T01:20:35;9.80;99.90
8862;DHT22;4799;50.996;4.754;2024-02-14T01:23:01;9.80;99.90
8862;DHT22;4799;50.996;4.754;2024-02-14T01:25:27;9.80;99.90
8862;DHT22;4799;50.996;4.754;2024-02-14T01:27:52;9.80;99.90
8862;DHT22;4799;50.996;4.754;2024-02-14T01:30:18;9.80;99.90
8862;DHT22;4799;50.996;4.754;2024-02-14T01:32:44;9.80;99.90
8862;DHT22;4799;50.996;4.754;2024-02-14T01:35:10;9.90;99.90
8862;DHT22;4799;50.996;4.754;2024-02-14T01:37:36;9.90;99.90
8862;DHT22;4799;50.996;4.754;2024-02-14T01:40:02;9.80;99.90
8862;DHT22;4799;50.996;4.754;2024-02-14T01:42:28;9.80;99.90
8862;DHT22;4799;50.996;4.754;2024-02-14T01:44:54;9.90;99.90
8862;DHT22;4799;50.996;4.754;2024-02-14T01:47:20;9.90;99.90
8862;DHT22;4799;50.996;4.754;2024-02-14T01:49:47;9.90;99.90
8862;DHT22;4799;50.996;4.754;2024-02-14T01:52:13;9.90;99.90
8862;DHT22;4799;50.996;4.754;2024-02-14T01:54:39;9.90;99.90
8862;DHT22;4799;50.996;4.754;2024-02-14T01:57:06;9.90;99.90
8862;DHT22;4799;50.996;4.754;2024-02-14T01:59:34;9.90;99.90
8862;DHT22;4799;50.996;4.754;2024-02-14T02:02:04;9.90;99.90
8862;DHT22;4799;50.996;4.754;2024-02-14T02:04:33;9.90;99.90
8862;DHT22;4799;50.996;4.754;2024-02-14T02:06:59;10.00;99.90
8862;DHT22;4799;50.996;4.754;2024-02-14T02:09:25;9.90;99.90
8862;DHT22;4799;50.996;4.754;2024-02-14T02:11:51;10.00;99.90
8862;DHT22;4799;50.996;4.754;2024-02-14T02:14:19;9.90;99.90
8862;DHT22;4799;50.996;4.754;2024-02-14T02:16:47;9.90;99.90
8862;DHT22;4799;50.996;4.754;2024-02-14T02:19:13;9.90;99.90
8862;DHT22;4799;50.996;4.754;2024-02-14T02:21:41;9.90;99.90
8862;DHT22;4799;50.996;4.754;2024-02-14T02:24:08;9.90;99.90
8862;DHT22;4799;50.996;4.754;2024-02-14T02:26:34;9.90;99.90
8862;DHT22;4799;50.996;4.754;2024-02-14T02:28:59;9.90;99.90
8862;DHT22;4799;50.996;4.754;2024-02-14T02:31:25;9.90;99.90
8862;DHT22;4799;50.996;4.754;2024-02-14T02:33:52;9.90;99.90
8862;DHT22;4799;50.996;4.754;2024-02-14T02:36:18;9.90;99.90
8862;DHT22;4799;50.996;4.754;2024-02-14T02:38:43;9.80;99.90
8862;DHT22;4799;50.996;4.754;2024-02-14T02:41:09;9.80;99.90
8862;DHT22;4799;50.996;4.754;2024-02-14T02:43:35;9.90;99.90
8862;DHT22;4799;50.996;4.754;2024-02-14T02:46:01;9.90;99.90
8862;DHT22;4799;50.996;4.754;2024-02-14T02:48:27;9.90;99.90
8862;DHT22;4799;50.996;4.754;2024-02-14T02:50:53;9.90;99.90
8862;DHT22;4799;50.996;4.754;2024-02-14T02:53:19;9.90;99.90
8862;DHT22;4799;50.996;4.754;2024-02-14T02:55:45;9.80;99.90
8862;DHT22;4799;50.996;4.754;2024-02-14T02:58:11;9.90;99.90
8862;DHT22;4799;50.996;4.754;2024-02-14T03:00:37;9.90;99.90
8862;DHT22;4799;50.996;4.754;2024-02-14T03:03:03;9.90;99.90
8862;DHT22;4799;50.996;4.754;2024-02-14T03:05:30;9.90;99.90
8862;DHT22;4799;50.996;4.754;2024-02-14T03:07:59;9.90;99.90
8862;DHT22;4799;50.996;4.754;2024-02-14T03:10:25;9.90;99.90
8862;DHT22;4799;50.996;4.754;2024-02-14T03:12:51;9.90;99.90
8862;DHT22;4799;50.996;4.754;2024-02-14T03:15:18;9.90;99.90
8862;DHT22;4799;50.996;4.754;2024-02-14T03:17:45;9.90;99.90
8862;DHT22;4799;50.996;4.754;2024-02-14T03:20:12;9.80;99.90
8862;DHT22;4799;50.996;4.754;2024-02-14T03:22:44;9.80;99.90
8862;DHT22;4799;50.996;4.754;2024-02-14T03:25:20;9.80;99.90
8862;DHT22;4799;50.996;4.754;2024-02-14T03:27:46;9.80;99.90
8862;DHT22;4799;50.996;4.754;2024-02-14T03:30:19;9.80;99.90
8862;DHT22;4799;50.996;4.754;2024-02-14T03:32:46;9.80;99.90
8862;DHT22;4799;50.996;4.754;2024-02-14T03:35:12;9.80;99.90
8862;DHT22;4799;50.996;4.754;2024-02-14T03:37:42;9.80;99.90
8862;DHT22;4799;50.996;4.754;2024-02-14T03:40:09;9.80;99.90
8862;DHT22;4799;50.996;4.754;2024-02-14T03:42:36;9.80;99.90
8862;DHT22;4799;50.996;4.754;2024-02-14T03:45:02;9.80;99.90
8862;DHT22;4799;50.996;4.754;2024-02-14T03:47:34;9.80;99.90
8862;DHT22;4799;50.996;4.754;2024-02-14T03:50:00;9.80;99.90
8862;DHT22;4799;50.996;4.754;2024-02-14T03:52:27;9.80;99.90
8862;DHT22;4799;50.996;4.754;2024-02-14T03:54:53;9.80;99.90
8862;DHT22;4799;50.996;4.754;2024-02-14T03:57:19;9.80;99.90
8862;DHT22;4799;50.996;4.754;2024-02-14T03:59:46;9.80;99.90
8862;DHT22;4799;50.996;4.754;2024-02-14T04:02:11;9.80;99.90
8862;DHT22;4799;50.996;4.754;2024-02-14T04:04:42;9.80;99.90
8862;DHT22;4799;50.996;4.754;2024-02-14T04:07:08;9.80;99.90
8862;DHT22;4799;50.996;4.754;2024-02-14T04:09:34;9.80;99.90
8862;DHT22;4799;50.996;4.754;2024-02-14T04:12:00;9.80;99.90
8862;DHT22;4799;50.996;4.754;2024-02-14T04:14:26;9.80;99.90
8862;DHT22;4799;50.996;4.754;2024-02-14T04:16:51;9.80;99.90
8862;DHT22;4799;50.996;4.754;2024-02-14T04:19:17;9.80;99.90
8862;DHT22;4799;50.996;4.754;2024-02-14T04:21:44;9.80;99.90
8862;DHT22;4799;50.996;4.754;2024-02-14T04:24:10;9.90;99.90
8862;DHT22;4799;50.996;4.754;2024-02-14T04:26:35;9.80;99.90
8862;DHT22;4799;50.996;4.754;2024-02-14T04:29:01;9.90;99.90
8862;DHT22;4799;50.996;4.754;2024-02-14T04:31:27;9.90;99.90
8862;DHT22;4799;50.996;4.754;2024-02-14T04:33:55;9.90;99.90
8862;DHT22;4799;50.996;4.754;2024-02-14T04:36:21;9.90;99.90
8862;DHT22;4799;50.996;4.754;2024-02-14T04:38:50;9.90;99.90
8862;DHT22;4799;50.996;4.754;2024-02-14T04:41:17;9.90;99.90
8862;DHT22;4799;50.996;4.754;2024-02-14T04:43:43;9.90;99.90
8862;DHT22;4799;50.996;4.754;2024-02-14T04:46:08;9.90;99.90
8862;DHT22;4799;50.996;4.754;2024-02-14T04:48:35;9.90;99.90
8862;DHT22;4799;50.996;4.754;2024-02-14T04:51:04;9.90;99.90
8862;DHT22;4799;50.996;4.754;2024-02-14T04:53:30;10.00;99.90
8862;DHT22;4799;50.996;4.754;2024-02-14T04:55:56;10.00;99.90
8862;DHT22;4799;50.996;4.754;2024-02-14T04:58:22;10.00;99.90
8862;DHT22;4799;50.996;4.754;2024-02-14T05:00:48;10.00;99.90
8862;DHT22;4799;50.996;4.754;2024-02-14T05:03:14;10.00;99.90
8862;DHT22;4799;50.996;4.754;2024-02-14T05:05:41;10.00;99.90
8862;DHT22;4799;50.996;4.754;2024-02-14T05:08:07;10.10;99.90
8862;DHT22;4799;50.996;4.754;2024-02-14T05:10:32;10.00;99.90
8862;DHT22;4799;50.996;4.754;2024-02-14T05:12:58;10.10;99.90
8862;DHT22;4799;50.996;4.754;2024-02-14T05:15:24;10.10;99.90
8862;DHT22;4799;50.996;4.754;2024-02-14T05:17:50;10.10;99.90
8862;DHT22;4799;50.996;4.754;2024-02-14T05:20:19;10.10;99.90
8862;DHT22;4799;50.996;4.754;2024-02-14T05:22:44;10.10;99.90
8862;DHT22;4799;50.996;4.754;2024-02-14T05:25:10;10.10;99.90
8862;DHT22;4799;50.996;4.754;2024-02-14T05:27:36;10.20;99.90
8862;DHT22;4799;50.996;4.754;2024-02-14T05:30:05;10.10;99.90
8862;DHT22;4799;50.996;4.754;2024-02-14T05:32:34;10.10;99.90
8862;DHT22;4799;50.996;4.754;2024-02-14T05:35:00;10.10;99.90
8862;DHT22;4799;50.996;4.754;2024-02-14T05:37:26;10.10;99.90
8862;DHT22;4799;50.996;4.754;2024-02-14T05:39:53;10.20;99.90
8862;DHT22;4799;50.996;4.754;2024-02-14T05:42:20;10.10;99.90
8862;DHT22;4799;50.996;4.754;2024-02-14T05:44:47;10.20;99.90
8862;DHT22;4799;50.996;4.754;2024-02-14T05:47:13;10.20;99.90
8862;DHT22;4799;50.996;4.754;2024-02-14T05:49:39;10.20;99.90
8862;DHT22;4799;50.996;4.754;2024-02-14T05:52:08;10.20;99.90
8862;DHT22;4799;50.996;4.754;2024-02-14T05:54:34;10.20;99.90
8862;DHT22;4799;50.996;4.754;2024-02-14T05:57:00;10.20;99.90
8862;DHT22;4799;50.996;4.754;2024-02-14T05:59:29;10.20;99.90
8862;DHT22;4799;50.996;4.754;2024-02-14T06:01:56;10.20;99.90
8862;DHT22;4799;50.996;4.754;2024-02-14T06:04:22;10.30;99.90
8862;DHT22;4799;50.996;4.754;2024-02-14T06:06:47;10.30;99.90
8862;DHT22;4799;50.996;4.754;2024-02-14T06:09:13;10.30;99.90
8862;DHT22;4799;50.996;4.754;2024-02-14T06:11:39;10.30;99.90
8862;DHT22;4799;50.996;4.754;2024-02-14T06:14:08;10.30;99.90
8862;DHT22;4799;50.996;4.754;2024-02-14T06:16:34;10.30;99.90
8862;DHT22;4799;50.996;4.754;2024-02-14T06:19:00;10.30;99.90
8862;DHT22;4799;50.996;4.754;2024-02-14T06:21:26;10.30;99.90
8862;DHT22;4799;50.996;4.754;2024-02-14T06:23:52;10.30;99.90
8862;DHT22;4799;50.996;4.754;2024-02-14T06:26:18;10.40;99.90
8862;DHT22;4799;50.996;4.754;2024-02-14T06:28:45;10.30;99.90
8862;DHT22;4799;50.996;4.754;2024-02-14T06:31:11;10.40;99.90
8862;DHT22;4799;50.996;4.754;2024-02-14T06:33:37;10.40;99.90
8862;DHT22;4799;50.996;4.754;2024-02-14T06:36:03;10.40;99.90
8862;DHT22;4799;50.996;4.754;2024-02-14T06:38:28;10.40;99.90
8862;DHT22;4799;50.996;4.754;2024-02-14T06:40:54;10.40;99.90
8862;DHT22;4799;50.996;4.754;2024-02-14T06:43:20;10.40;99.90
8862;DHT22;4799;50.996;4.754;2024-02-14T06:45:46;10.40;99.90
8862;DHT22;4799;50.996;4.754;2024-02-14T06:48:12;10.40;99.90
8862;DHT22;4799;50.996;4.754;2024-02-14T06:50:37;10.40;99.90
8862;DHT22;4799;50.996;4.754;2024-02-14T06:53:04;10.50;99.90
8862;DHT22;4799;50.996;4.754;2024-02-14T06:55:30;10.50;99.90
8862;DHT22;4799;50.996;4.754;2024-02-14T06:57:59;10.50;99.90
8862;DHT22;4799;50.996;4.754;2024-02-14T07:00:25;10.50;99.90
8862;DHT22;4799;50.996;4.754;2024-02-14T07:02:51;10.50;99.90
8862;DHT22;4799;50.996;4.754;2024-02-14T07:05:16;10.50;99.90
8862;DHT22;4799;50.996;4.754;2024-02-14T07:07:42;10.60;99.90
8862;DHT22;4799;50.996;4.754;2024-02-14T07:10:08;10.60;99.90
8862;DHT22;4799;50.996;4.754;2024-02-14T07:12:34;10.60;99.90
8862;DHT22;4799;50.996;4.754;2024-02-14T07:15:02;10.60;99.90
8862;DHT22;4799;50.996;4.754;2024-02-14T07:17:30;10.60;99.90
8862;DHT22;4799;50.996;4.754;2024-02-14T07:19:55;10.70;99.90
8862;DHT22;4799;50.996;4.754;2024-02-14T07:22:21;10.70;99.90
8862;DHT22;4799;50.996;4.754;2024-02-14T07:24:47;10.70;99.90
8862;DHT22;4799;50.996;4.754;2024-02-14T07:27:14;10.80;99.90
8862;DHT22;4799;50.996;4.754;2024-02-14T07:29:40;10.80;99.90
8862;DHT22;4799;50.996;4.754;2024-02-14T07:32:06;10.80;99.90
8862;DHT22;4799;50.996;4.754;2024-02-14T07:34:32;10.80;99.90
8862;DHT22;4799;50.996;4.754;2024-02-14T07:36:58;10.90;99.90
8862;DHT22;4799;50.996;4.754;2024-02-14T07:39:24;10.80;99.90
8862;DHT22;4799;50.996;4.754;2024-02-14T07:41:50;10.90;99.90
8862;DHT22;4799;50.996;4.754;2024-02-14T07:44:17;10.90;99.90
8862;DHT22;4799;50.996;4.754;2024-02-14T07:46:42;10.90;99.90
8862;DHT22;4799;50.996;4.754;2024-02-14T07:49:08;10.90;99.90
8862;DHT22;4799;50.996;4.754;2024-02-14T07:51:35;11.00;99.90
8862;DHT22;4799;50.996;4.754;2024-02-14T07:54:06;11.00;99.90
8862;DHT22;4799;50.996;4.754;2024-02-14T07:56:32;11.00;99.90
8862;DHT22;4799;50.996;4.754;2024-02-14T07:58:58;11.10;99.90
8862;DHT22;4799;50.996;4.754;2024-02-14T08:01:25;11.10;99.90
8862;DHT22;4799;50.996;4.754;2024-02-14T08:03:51;11.10;99.90
8862;DHT22;4799;50.996;4.754;2024-02-14T08:06:17;11.10;99.90
8862;DHT22;4799;50.996;4.754;2024-02-14T08:08:43;11.20;99.90
8862;DHT22;4799;50.996;4.754;2024-02-14T08:11:09;11.20;99.90
8862;DHT22;4799;50.996;4.754;2024-02-14T08:13:35;11.30;99.90
8862;DHT22;4799;50.996;4.754;2024-02-14T08:16:02;11.30;99.90
8862;DHT22;4799;50.996;4.754;2024-02-14T08:18:28;11.40;99.90
8862;DHT22;4799;50.996;4.754;2024-02-14T08:20:53;11.40;99.90
8862;DHT22;4799;50.996;4.754;2024-02-14T08:23:20;11.40;99.90
8862;DHT22;4799;50.996;4.754;2024-02-14T08:25:46;11.50;99.90
8862;DHT22;4799;50.996;4.754;2024-02-14T08:28:12;11.50;99.90
8862;DHT22;4799;50.996;4.754;2024-02-14T08:30:38;11.50;99.90
8862;DHT22;4799;50.996;4.754;2024-02-14T08:33:03;11.50;99.90
8862;DHT22;4799;50.996;4.754;2024-02-14T08:35:29;11.50;99.90
8862;DHT22;4799;50.996;4.754;2024-02-14T08:37:55;11.50;99.90
8862;DHT22;4799;50.996;4.754;2024-02-14T08:40:21;11.50;99.90
8862;DHT22;4799;50.996;4.754;2024-02-14T08:42:47;11.50;99.90
8862;DHT22;4799;50.996;4.754;2024-02-14T08:45:13;11.50;99.90
8862;DHT22;4799;50.996;4.754;2024-02-14T08:47:38;11.50;99.90
8862;DHT22;4799;50.996;4.754;2024-02-14T08:50:05;11.50;99.90
8862;DHT22;4799;50.996;4.754;2024-02-14T08:52:30;11.50;99.90
8862;DHT22;4799;50.996;4.754;2024-02-14T08:54:56;11.50;99.90
8862;DHT22;4799;50.996;4.754;2024-02-14T08:57:22;11.60;99.90
8862;DHT22;4799;50.996;4.754;2024-02-14T08:59:49;11.50;99.90
8862;DHT22;4799;50.996;4.754;2024-02-14T09:02:16;11.50;99.90
8862;DHT22;4799;50.996;4.754;2024-02-14T09:04:42;11.60;99.90
8862;DHT22;4799;50.996;4.754;2024-02-14T09:07:09;11.60;99.90
8862;DHT22;4799;50.996;4.754;2024-02-14T09:09:35;11.60;99.90
8862;DHT22;4799;50.996;4.754;2024-02-14T09:12:04;11.60;99.90
8862;DHT22;4799;50.996;4.754;2024-02-14T09:14:30;11.70;99.90
8862;DHT22;4799;50.996;4.754;2024-02-14T09:16:56;11.70;99.90
8862;DHT22;4799;50.996;4.754;2024-02-14T09:19:22;11.60;99.90
8862;DHT22;4799;50.996;4.754;2024-02-14T09:21:48;11.60;99.90
8862;DHT22;4799;50.996;4.754;2024-02-14T09:24:14;11.70;99.90
8862;DHT22;4799;50.996;4.754;2024-02-14T09:26:39;11.70;99.90
8862;DHT22;4799;50.996;4.754;2024-02-14T09:29:05;11.70;99.90
8862;DHT22;4799;50.996;4.754;2024-02-14T09:31:31;11.70;99.90
8862;DHT22;4799;50.996;4.754;2024-02-14T09:33:57;11.60;99.90
8862;DHT22;4799;50.996;4.754;2024-02-14T09:36:24;11.70;99.90
8862;DHT22;4799;50.996;4.754;2024-02-14T09:38:51;11.70;99.90
8862;DHT22;4799;50.996;4.754;2024-02-14T09:41:36;11.70;99.90
8862;DHT22;4799;50.996;4.754;2024-02-14T09:44:03;11.70;99.90
8862;DHT22;4799;50.996;4.754;2024-02-14T09:46:29;11.70;99.90
8862;DHT22;4799;50.996;4.754;2024-02-14T09:48:58;11.60;99.90
8862;DHT22;4799;50.996;4.754;2024-02-14T09:51:28;11.70;99.90
8862;DHT22;4799;50.996;4.754;2024-02-14T09:53:55;11.70;99.90
8862;DHT22;4799;50.996;4.754;2024-02-14T09:56:21;11.70;99.90
8862;DHT22;4799;50.996;4.754;2024-02-14T09:58:50;11.80;99.90
8862;DHT22;4799;50.996;4.754;2024-02-14T10:01:25;11.80;99.90
8862;DHT22;4799;50.996;4.754;2024-02-14T10:03:51;11.80;99.90
8862;DHT22;4799;50.996;4.754;2024-02-14T10:06:18;11.90;99.90
8862;DHT22;4799;50.996;4.754;2024-02-14T10:08:46;11.90;99.90
8862;DHT22;4799;50.996;4.754;2024-02-14T10:11:13;11.90;99.90
8862;DHT22;4799;50.996;4.754;2024-02-14T10:13:41;11.90;99.90
8862;DHT22;4799;50.996;4.754;2024-02-14T10:16:07;11.90;99.90
8862;DHT22;4799;50.996;4.754;2024-02-14T10:18:34;11.90;99.90
8862;DHT22;4799;50.996;4.754;2024-02-14T10:21:00;12.00;99.90
8862;DHT22;4799;50.996;4.754;2024-02-14T10:23:27;12.00;99.90
8862;DHT22;4799;50.996;4.754;2024-02-14T10:25:53;12.00;99.90
8862;DHT22;4799;50.996;4.754;2024-02-14T10:28:21;12.00;99.90
8862;DHT22;4799;50.996;4.754;2024-02-14T10:30:47;12.10;99.90
8862;DHT22;4799;50.996;4.754;2024-02-14T10:33:15;12.10;99.90
8862;DHT22;4799;50.996;4.754;2024-02-14T10:35:42;12.20;99.90
8862;DHT22;4799;50.996;4.754;2024-02-14T10:38:08;12.20;99.90
8862;DHT22;4799;50.996;4.754;2024-02-14T10:40:36;12.30;99.90
8862;DHT22;4799;50.996;4.754;2024-02-14T10:43:08;12.40;99.90
8862;DHT22;4799;50.996;4.754;2024-02-14T10:45:38;12.40;99.90
8862;DHT22;4799;50.996;4.754;2024-02-14T10:48:05;12.50;99.90
8862;DHT22;4799;50.996;4.754;2024-02-14T10:50:36;12.50;99.90
8862;DHT22;4799;50.996;4.754;2024-02-14T10:53:10;12.60;99.90
8862;DHT22;4799;50.996;4.754;2024-02-14T10:55:40;12.60;99.90
8862;DHT22;4799;50.996;4.754;2024-02-14T10:58:07;12.60;99.90
8862;DHT22;4799;50.996;4.754;2024-02-14T11:00:33;12.60;99.90
8862;DHT22;4799;50.996;4.754;2024-02-14T11:02:59;12.70;99.90
8862;DHT22;4799;50.996;4.754;2024-02-14T11:05:26;12.70;99.90
8862;DHT22;4799;50.996;4.754;2024-02-14T11:07:52;12.70;99.90
8862;DHT22;4799;50.996;4.754;2024-02-14T11:10:19;12.80;99.90
8862;DHT22;4799;50.996;4.754;2024-02-14T11:12:47;12.80;99.90
8862;DHT22;4799;50.996;4.754;2024-02-14T11:17:43;12.90;99.90
8862;DHT22;4799;50.996;4.754;2024-02-14T11:20:17;12.80;99.90
8862;DHT22;4799;50.996;4.754;2024-02-14T11:23:02;12.80;99.90
8862;DHT22;4799;50.996;4.754;2024-02-14T11:25:29;12.80;99.90
8862;DHT22;4799;50.996;4.754;2024-02-14T11:28:00;12.80;99.90
8862;DHT22;4799;50.996;4.754;2024-02-14T11:30:33;12.70;99.90
8862;DHT22;4799;50.996;4.754;2024-02-14T11:33:19;12.70;99.90
8862;DHT22;4799;50.996;4.754;2024-02-14T11:35:53;12.70;99.90
8862;DHT22;4799;50.996;4.754;2024-02-14T11:38:23;12.70;99.90
8862;DHT22;4799;50.996;4.754;2024-02-14T11:40:53;12.60;99.90
8862;DHT22;4799;50.996;4.754;2024-02-14T11:43:20;12.60;99.90
8862;DHT22;4799;50.996;4.754;2024-02-14T11:45:46;12.60;99.90
8862;DHT22;4799;50.996;4.754;2024-02-14T11:48:16;12.50;99.90
8862;DHT22;4799;50.996;4.754;2024-02-14T11:50:43;12.50;99.90
8862;DHT22;4799;50.996;4.754;2024-02-14T11:53:14;12.50;99.90
8862;DHT22;4799;50.996;4.754;2024-02-14T11:55:42;12.50;99.90
8862;DHT22;4799;50.996;4.754;2024-02-14T11:58:09;12.50;99.90
8862;DHT22;4799;50.996;4.754;2024-02-14T12:00:40;12.50;99.90
8862;DHT22;4799;50.996;4.754;2024-02-14T12:03:08;12.50;99.90
8862;DHT22;4799;50.996;4.754;2024-02-14T12:05:36;12.50;99.90
8862;DHT22;4799;50.996;4.754;2024-02-14T12:08:03;12.50;99.90
8862;DHT22;4799;50.996;4.754;2024-02-14T12:10:31;12.50;99.90
8862;DHT22;4799;50.996;4.754;2024-02-14T12:12:58;12.50;99.90
8862;DHT22;4799;50.996;4.754;2024-02-14T12:15:26;12.50;99.90
8862;DHT22;4799;50.996;4.754;2024-02-14T12:17:55;12.50;99.90
8862;DHT22;4799;50.996;4.754;2024-02-14T12:20:22;12.50;99.90
8862;DHT22;4799;50.996;4.754;2024-02-14T12:22:51;12.50;99.90
8862;DHT22;4799;50.996;4.754;2024-02-14T12:25:18;12.60;99.90
8862;DHT22;4799;50.996;4.754;2024-02-14T12:27:50;12.60;99.90
8862;DHT22;4799;50.996;4.754;2024-02-14T12:30:17;12.60;99.90
8862;DHT22;4799;50.996;4.754;2024-02-14T12:32:43;12.70;99.90
8862;DHT22;4799;50.996;4.754;2024-02-14T12:35:09;12.70;99.90
8862;DHT22;4799;50.996;4.754;2024-02-14T12:37:35;12.80;99.90
8862;DHT22;4799;50.996;4.754;2024-02-14T12:40:01;12.80;99.90
8862;DHT22;4799;50.996;4.754;2024-02-14T12:42:27;12.80;99.90
8862;DHT22;4799;50.996;4.754;2024-02-14T12:44:54;12.80;99.90
8862;DHT22;4799;50.996;4.754;2024-02-14T12:47:21;12.80;99.90
8862;DHT22;4799;50.996;4.754;2024-02-14T12:49:48;12.80;99.90
8862;DHT22;4799;50.996;4.754;2024-02-14T12:52:15;12.80;99.90
8862;DHT22;4799;50.996;4.754;2024-02-14T12:54:40;12.80;99.90
8862;DHT22;4799;50.996;4.754;2024-02-14T12:57:06;12.80;99.90
8862;DHT22;4799;50.996;4.754;2024-02-14T12:59:32;12.80;99.90
8862;DHT22;4799;50.996;4.754;2024-02-14T13:01:58;12.80;99.90
8862;DHT22;4799;50.996;4.754;2024-02-14T13:04:24;12.80;99.90
8862;DHT22;4799;50.996;4.754;2024-02-14T13:06:49;12.90;99.90
8862;DHT22;4799;50.996;4.754;2024-02-14T13:09:15;12.90;99.90
8862;DHT22;4799;50.996;4.754;2024-02-14T13:11:41;12.90;99.90
8862;DHT22;4799;50.996;4.754;2024-02-14T13:14:08;12.90;99.90
8862;DHT22;4799;50.996;4.754;2024-02-14T13:16:34;12.90;99.90
8862;DHT22;4799;50.996;4.754;2024-02-14T13:19:00;13.00;99.90
8862;DHT22;4799;50.996;4.754;2024-02-14T13:21:26;13.00;99.90
8862;DHT22;4799;50.996;4.754;2024-02-14T13:23:51;13.00;99.90
8862;DHT22;4799;50.996;4.754;2024-02-14T13:26:17;13.00;99.90
8862;DHT22;4799;50.996;4.754;2024-02-14T13:28:43;13.00;99.90
8862;DHT22;4799;50.996;4.754;2024-02-14T13:31:08;13.00;99.90
8862;DHT22;4799;50.996;4.754;2024-02-14T13:33:36;12.90;99.90
8862;DHT22;4799;50.996;4.754;2024-02-14T13:36:01;12.90;99.90
8862;DHT22;4799;50.996;4.754;2024-02-14T13:38:27;12.90;99.90
8862;DHT22;4799;50.996;4.754;2024-02-14T13:40:54;12.90;99.90
8862;DHT22;4799;50.996;4.754;2024-02-14T13:43:20;12.90;99.90
8862;DHT22;4799;50.996;4.754;2024-02-14T13:45:46;12.80;99.90
8862;DHT22;4799;50.996;4.754;2024-02-14T13:48:13;12.80;99.90
8862;DHT22;4799;50.996;4.754;2024-02-14T13:50:39;12.80;99.90
8862;DHT22;4799;50.996;4.754;2024-02-14T13:53:06;12.80;99.90
8862;DHT22;4799;50.996;4.754;2024-02-14T13:55:32;12.80;99.90
8862;DHT22;4799;50.996;4.754;2024-02-14T13:57:58;12.90;99.90
8862;DHT22;4799;50.996;4.754;2024-02-14T14:00:23;12.90;99.90
8862;DHT22;4799;50.996;4.754;2024-02-14T14:02:49;12.80;99.90
8862;DHT22;4799;50.996;4.754;2024-02-14T14:05:15;12.90;99.90
8862;DHT22;4799;50.996;4.754;2024-02-14T14:07:41;12.90;99.90
8862;DHT22;4799;50.996;4.754;2024-02-14T14:10:08;12.90;99.90
8862;DHT22;4799;50.996;4.754;2024-02-14T14:12:35;12.90;99.90
8862;DHT22;4799;50.996;4.754;2024-02-14T14:15:01;12.90;99.90
8862;DHT22;4799;50.996;4.754;2024-02-14T14:17:27;12.90;99.90
8862;DHT22;4799;50.996;4.754;2024-02-14T14:19:53;12.90;99.90
8862;DHT22;4799;50.996;4.754;2024-02-14T14:22:19;12.90;99.90
8862;DHT22;4799;50.996;4.754;2024-02-14T14:24:45;13.00;99.90
8862;DHT22;4799;50.996;4.754;2024-02-14T14:27:11;13.00;99.90
8862;DHT22;4799;50.996;4.754;2024-02-14T14:29:40;13.00;99.90
8862;DHT22;4799;50.996;4.754;2024-02-14T14:32:11;13.00;99.90
8862;DHT22;4799;50.996;4.754;2024-02-14T14:34:37;13.00;99.90
8862;DHT22;4799;50.996;4.754;2024-02-14T14:37:03;13.00;99.90
8862;DHT22;4799;50.996;4.754;2024-02-14T14:39:29;13.00;99.90
8862;DHT22;4799;50.996;4.754;2024-02-14T14:41:56;13.10;99.90
8862;DHT22;4799;50.996;4.754;2024-02-14T14:44:27;13.10;99.90
8862;DHT22;4799;50.996;4.754;2024-02-14T14:46:53;13.10;99.90
8862;DHT22;4799;50.996;4.754;2024-02-14T14:49:19;13.20;99.90
8862;DHT22;4799;50.996;4.754;2024-02-14T14:51:45;13.20;99.90
8862;DHT22;4799;50.996;4.754;2024-02-14T14:54:11;13.20;99.90
8862;DHT22;4799;50.996;4.754;2024-02-14T14:56:36;13.20;99.90
8862;DHT22;4799;50.996;4.754;2024-02-14T14:59:02;13.30;99.90
8862;DHT22;4799;50.996;4.754;2024-02-14T15:01:32;13.30;99.90
8862;DHT22;4799;50.996;4.754;2024-02-14T15:04:02;13.30;99.90
8862;DHT22;4799;50.996;4.754;2024-02-14T15:06:28;13.40;99.90
8862;DHT22;4799;50.996;4.754;2024-02-14T15:08:54;13.40;99.90
8862;DHT22;4799;50.996;4.754;2024-02-14T15:11:20;13.40;99.90
8862;DHT22;4799;50.996;4.754;2024-02-14T15:13:47;13.40;99.90
8862;DHT22;4799;50.996;4.754;2024-02-14T15:16:13;13.40;99.90
8862;DHT22;4799;50.996;4.754;2024-02-14T15:18:39;13.50;99.90
8862;DHT22;4799;50.996;4.754;2024-02-14T15:21:09;13.50;99.90
8862;DHT22;4799;50.996;4.754;2024-02-14T15:23:34;13.50;99.90
8862;DHT22;4799;50.996;4.754;2024-02-14T15:26:00;13.50;99.90
8862;DHT22;4799;50.996;4.754;2024-02-14T15:28:32;13.50;99.90
8862;DHT22;4799;50.996;4.754;2024-02-14T15:31:00;13.50;99.90
8862;DHT22;4799;50.996;4.754;2024-02-14T15:33:44;13.50;99.90
8862;DHT22;4799;50.996;4.754;2024-02-14T15:36:10;13.50;99.90
8862;DHT22;4799;50.996;4.754;2024-02-14T15:38:40;13.50;99.90
8862;DHT22;4799;50.996;4.754;2024-02-14T15:41:06;13.50;99.90
8862;DHT22;4799;50.996;4.754;2024-02-14T15:43:32;13.40;99.90
8862;DHT22;4799;50.996;4.754;2024-02-14T15:45:59;13.40;99.90
8862;DHT22;4799;50.996;4.754;2024-02-14T15:48:25;13.40;99.90
8862;DHT22;4799;50.996;4.754;2024-02-14T15:50:54;13.40;99.90
8862;DHT22;4799;50.996;4.754;2024-02-14T15:53:19;13.30;99.90
8862;DHT22;4799;50.996;4.754;2024-02-14T15:55:45;13.30;99.90
8862;DHT22;4799;50.996;4.754;2024-02-14T15:58:11;13.40;99.90
8862;DHT22;4799;50.996;4.754;2024-02-14T16:00:38;13.30;99.90
8862;DHT22;4799;50.996;4.754;2024-02-14T16:03:04;13.30;99.90
8862;DHT22;4799;50.996;4.754;2024-02-14T16:05:30;13.30;99.90